Kavala Prefecture, Greece

2:39 PM EEST on July 07, 2015 (GMT +0300)
Megas Alexandros | | Change Station
CLOSE
Current Station
Airport
Location: Chrysopouli,
Elevation: 16 ft
Nearby Weather Stations

Elev 16 ft 40.92 °N, 24.62 °E | Updated 19 minutes ago

Partly Cloudy
Partly Cloudy
88 °F
Feels Like 88 °F
N
8
Wind Variable Wind from SW

Today
High -- | Low -- °F
--% Chance of Precip.
Yesterday
High -- | Low -- °F
Precip. -- in
5:56 AM 8:55 PM
Waning Gibbous, 65% visible
Pressure 29.98 in
Visibility 6.2 miles
Clouds Few 2500 ft
Heat Index 88 °F
Dew Point 61 °F
Humidity 40%
Rainfall 0.00 in
Snow Depth Not available.
UV 10 out of 12
Pollen Not available.
Air Quality Not available.
Flu Activity Not available.
METAR LGKV 071120Z 22007KT 9999 FEW025 31/16 Q1015

More Conditions Fewer Conditions

Pressure 29.98 in
Visibility 6.2 miles
Clouds Few 2500 ft
Heat Index 88 °F
Dew Point 61 °F
Humidity 40%
Rainfall 0.00 in
Snow Depth Not available.
UV 10 out of 12
Pollen Not available.
Air Quality Not available.
Flu Activity Not available.
METAR LGKV 071120Z 22007KT 9999 FEW025 31/16 Q1015

More Conditions Fewer Conditions

10-Day Weather Forecast

×

Almanac

Astronomy

Jul. 07, 2015 Rise Set
Actual Time
Civil Twilight
Nautical Twilight
Astronomical Twilight
Moon
Length of Visible Light
Length of Day
Tomorrow will be .
, % of the Moon is Illuminated

Today's Extremes

Country Highs Country Lows

Community

WunderPhotos

Upload Photos

1,835,768 photos uploaded!

WunderBlogs® & News

Nearby

Air Quality

  Air Quality AQ Index Pollutant
Not available.

Snow Depth

Station Depth Elevation

Earthquake Activity

City Distance Mag. Time & Date
Minimum magnitude displayed is 2.5.

Coastal Water Temperatures

Place Temperature

Stations

Nearby Weather Stations

Station Location Temp. Windchill Dew Point Humidity Wind Precip. Elev Updated Type